Time;durP1;ratioP1;P1;durP2;ratioP2;P2;SDS_P1;SDS_P2;PMS_P1;PMS_P2;Temp;Humidity;BMP_temperature;BMP_pressure;BME280_temperature;BME280_humidity;BME280_pressure;Samples;Min_cycle;Max_cycle;Signal;HPM_P1;HPM_P2
2022/01/13 00:00:27;;;;;;;41.20;17.52;;;3.80;96.00;;;;;;2095035;28;20064;-86
2022/01/13 00:01:33;;;;;;;45.75;18.65;;;3.80;96.00;;;;;;2087925;28;20036;-86
2022/01/13 00:02:36;;;;;;;45.95;19.58;;;3.80;96.00;;;;;;2073544;28;20057;-87
2022/01/13 00:03:37;;;;;;;46.60;20.33;;;3.80;96.00;;;;;;2067442;28;20057;-86
2022/01/13 00:04:38;;;;;;;45.63;19.40;;;3.80;96.00;;;;;;2071698;28;20034;-86
2022/01/13 00:05:39;;;;;;;41.70;18.38;;;3.80;96.10;;;;;;2072747;28;20026;-86
2022/01/13 00:06:40;;;;;;;40.13;17.63;;;3.80;96.00;;;;;;2072516;28;20073;-86
2022/01/13 00:07:41;;;;;;;48.75;19.52;;;3.80;96.10;;;;;;2079623;28;20132;-86
2022/01/13 00:08:42;;;;;;;47.25;19.35;;;3.80;96.10;;;;;;2089746;28;20041;-86
2022/01/13 00:09:43;;;;;;;42.00;18.50;;;3.80;96.10;;;;;;2083631;28;20591;-86
2022/01/13 00:10:43;;;;;;;41.00;18.20;;;3.80;96.10;;;;;;2088354;28;20041;-87
2022/01/13 00:11:47;;;;;;;41.00;17.85;;;3.70;96.10;;;;;;2083160;28;20233;-86
2022/01/13 00:12:55;;;;;;;39.55;16.83;;;3.70;96.10;;;;;;2081492;28;20089;-87
2022/01/13 00:15:25;;;;;;;38.58;16.35;;;3.70;96.10;;;;;;2085530;28;20045;-86
2022/01/13 00:17:58;;;;;;;38.42;16.15;;;3.80;96.10;;;;;;2074684;28;20100;-86
2022/01/13 00:18:50;;;;;;;;;;;3.80;96.10;;;;;;2077645;28;20048;-87
2022/01/13 00:21:49;;;;;;;41.03;16.05;;;3.70;96.10;;;;;;2074797;28;20030;-86
2022/01/13 00:22:49;;;;;;;38.75;16.05;;;3.80;96.10;;;;;;2071571;28;20053;-86
2022/01/13 00:23:53;;;;;;;36.10;15.13;;;3.80;96.00;;;;;;2086067;28;20038;-87
2022/01/13 00:24:58;;;;;;;44.33;17.73;;;3.80;96.00;;;;;;2088856;28;20047;-86
2022/01/13 00:26:01;;;;;;;40.17;16.70;;;3.80;96.00;;;;;;2082416;28;20454;-86
2022/01/13 00:27:09;;;;;;;39.70;16.25;;;3.70;96.00;;;;;;2073345;28;20061;-86
2022/01/13 00:28:19;;;;;;;37.75;15.57;;;3.70;96.00;;;;;;2071677;28;20038;-87
2022/01/13 00:29:26;;;;;;;42.35;16.40;;;3.70;96.00;;;;;;2073549;28;20581;-86
2022/01/13 00:30:27;;;;;;;39.97;17.15;;;3.70;96.00;;;;;;2073569;28;20041;-86
2022/01/13 00:31:32;;;;;;;40.55;17.15;;;3.70;96.00;;;;;;2073520;28;20038;-86
2022/01/13 00:32:33;;;;;;;39.72;16.23;;;3.70;96.10;;;;;;2076035;28;20041;-86
2022/01/13 00:33:34;;;;;;;39.03;16.58;;;3.70;96.10;;;;;;2077337;28;20478;-86
2022/01/13 00:34:35;;;;;;;41.38;16.48;;;3.70;96.10;;;;;;2078049;28;20033;-86
2022/01/13 00:35:36;;;;;;;42.47;17.08;;;3.70;96.10;;;;;;2070734;28;20045;-86
2022/01/13 00:36:38;;;;;;;39.08;16.58;;;3.70;96.10;;;;;;2073992;28;20041;-86
2022/01/13 00:37:40;;;;;;;42.33;16.98;;;3.70;96.10;;;;;;2073090;28;20026;-86
2022/01/13 00:38:41;;;;;;;41.08;16.25;;;3.70;96.10;;;;;;2080124;28;20034;-86
2022/01/13 00:39:42;;;;;;;67.05;20.13;;;3.70;96.10;;;;;;2082261;28;20037;-87
2022/01/13 00:40:42;;;;;;;53.17;19.02;;;3.70;96.10;;;;;;2072757;28;20034;-86
2022/01/13 00:41:43;;;;;;;44.72;18.73;;;3.70;96.10;;;;;;2072465;28;20033;-85
2022/01/13 00:42:44;;;;;;;47.78;19.45;;;3.70;96.10;;;;;;2080973;28;20084;-86
2022/01/13 00:43:46;;;;;;;45.97;18.63;;;3.70;96.10;;;;;;2090592;28;20033;-86
2022/01/13 00:44:48;;;;;;;41.63;17.60;;;3.70;96.10;;;;;;2090382;28;20056;-86
2022/01/13 00:45:49;;;;;;;46.63;18.40;;;3.70;96.10;;;;;;2088131;28;20491;-86
2022/01/13 00:47:00;;;;;;;52.28;19.08;;;3.70;96.10;;;;;;2087868;28;20037;-86
2022/01/13 00:48:00;;;;;;;46.83;18.77;;;3.70;96.10;;;;;;2079800;28;20121;-85
2022/01/13 00:49:01;;;;;;;48.35;18.95;;;3.70;96.10;;;;;;2073562;28;20042;-86
2022/01/13 00:50:02;;;;;;;45.33;18.25;;;3.70;96.00;;;;;;2066656;28;20423;-86
2022/01/13 00:51:03;;;;;;;45.60;17.60;;;3.70;96.20;;;;;;2082114;28;20046;-86
2022/01/13 00:52:05;;;;;;;43.38;18.08;;;3.70;96.20;;;;;;2084780;28;20037;-86
2022/01/13 00:53:06;;;;;;;45.45;18.15;;;3.70;96.20;;;;;;2090707;28;20372;-86
2022/01/13 00:54:08;;;;;;;44.80;17.98;;;3.60;96.20;;;;;;2086885;28;20045;-86
2022/01/13 00:55:14;;;;;;;41.72;17.60;;;3.70;96.20;;;;;;2074587;28;20069;-87
2022/01/13 00:56:16;;;;;;;44.92;17.45;;;3.70;96.20;;;;;;2086184;28;20037;-86
2022/01/13 00:57:16;;;;;;;42.95;17.77;;;3.70;96.20;;;;;;2082289;28;20044;-86
2022/01/13 00:58:17;;;;;;;42.13;17.38;;;3.70;96.20;;;;;;2074204;28;20411;-86
2022/01/13 00:59:18;;;;;;;41.83;17.42;;;3.70;96.20;;;;;;2076947;28;20060;-86
2022/01/13 01:00:19;;;;;;;43.63;17.60;;;3.70;96.20;;;;;;2082963;28;20732;-86
2022/01/13 01:01:20;;;;;;;42.88;17.90;;;3.70;96.20;;;;;;2090314;28;20075;-86
2022/01/13 01:02:20;;;;;;;42.15;17.00;;;3.70;96.20;;;;;;2090500;28;20041;-86
2022/01/13 01:03:22;;;;;;;42.78;17.95;;;3.70;96.20;;;;;;2082520;28;20107;-86
2022/01/13 01:04:23;;;;;;;40.05;17.05;;;3.70;96.20;;;;;;2082727;28;20044;-86
2022/01/13 01:05:24;;;;;;;39.63;16.88;;;3.70;96.20;;;;;;2082307;28;20054;-86
2022/01/13 01:06:25;;;;;;;42.85;17.02;;;3.70;96.20;;;;;;2097061;28;20468;-86
2022/01/13 01:07:25;;;;;;;40.47;17.17;;;3.70;96.20;;;;;;2081795;28;20061;-86
2022/01/13 01:08:26;;;;;;;45.30;17.30;;;3.70;96.20;;;;;;2073703;28;20045;-86
2022/01/13 01:09:39;;;;;;;48.88;18.98;;;3.80;96.20;;;;;;2077138;28;20096;-86
2022/01/13 01:10:40;;;;;;;43.72;18.00;;;3.70;96.20;;;;;;2081663;28;20467;-86
2022/01/13 01:11:44;;;;;;;40.38;16.50;;;3.80;96.20;;;;;;2083533;28;20049;-86
2022/01/13 01:12:44;;;;;;;41.60;18.05;;;3.70;96.20;;;;;;2076916;28;20037;-87
2022/01/13 01:13:48;;;;;;;42.42;17.48;;;3.70;96.20;;;;;;2073956;28;20382;-86
2022/01/13 01:14:54;;;;;;;42.80;17.00;;;3.80;96.20;;;;;;2069858;28;20496;-87
2022/01/13 01:16:00;;;;;;;39.33;16.67;;;3.70;96.20;;;;;;2067244;28;20420;-87
2022/01/13 01:17:01;;;;;;;42.47;17.45;;;3.80;96.20;;;;;;2084018;28;20040;-86
2022/01/13 01:18:12;;;;;;;36.88;15.40;;;3.80;96.20;;;;;;2074069;28;20088;-86
2022/01/13 01:19:14;;;;;;;44.90;17.48;;;3.80;96.20;;;;;;2075307;28;20041;-86
2022/01/13 01:20:15;;;;;;;43.08;16.98;;;3.80;96.20;;;;;;2078823;28;20057;-86
2022/01/13 01:23:27;;;;;;;50.28;18.08;;;3.80;96.20;;;;;;2089419;28;20041;-86
2022/01/13 01:24:53;;;;;;;43.20;16.90;;;3.80;96.20;;;;;;2086521;28;20124;-87
2022/01/13 01:26:02;;;;;;;43.75;17.60;;;3.80;96.20;;;;;;2084081;28;20049;-86
2022/01/13 01:27:15;;;;;;;44.65;17.35;;;3.80;96.20;;;;;;2065879;28;20444;-86
2022/01/13 01:28:24;;;;;;;45.97;17.08;;;3.80;96.20;;;;;;2070358;28;20036;-87
2022/01/13 01:30:39;;;;;;;40.58;16.98;;;3.80;96.40;;;;;;2076464;28;20500;-86
2022/01/13 01:31:46;;;;;;;42.33;16.48;;;3.70;96.10;;;;;;2081747;28;20068;-86
2022/01/13 01:32:47;;;;;;;43.85;16.52;;;3.70;96.10;;;;;;2073988;28;20045;-86
2022/01/13 01:33:59;;;;;;;38.95;16.42;;;3.80;96.20;;;;;;2066473;28;20066;-86
2022/01/13 01:35:03;;;;;;;39.47;15.52;;;3.80;96.20;;;;;;2067396;28;20041;-87
2022/01/13 01:36:04;;;;;;;43.67;16.27;;;3.70;96.20;;;;;;2070607;28;20192;-86
2022/01/13 01:37:13;;;;;;;43.03;16.27;;;3.80;96.20;;;;;;2078399;28;20038;-86
2022/01/13 01:38:14;;;;;;;37.58;15.10;;;3.70;96.20;;;;;;2086616;28;20369;-87
2022/01/13 01:39:15;;;;;;;39.10;15.95;;;3.70;96.20;;;;;;2078054;28;20044;-86
2022/01/13 01:40:16;;;;;;;46.88;16.77;;;3.70;96.20;;;;;;2073816;28;20447;-86
2022/01/13 01:41:18;;;;;;;39.67;16.17;;;3.70;96.20;;;;;;2080032;28;20041;-86
2022/01/13 01:42:21;;;;;;;40.95;16.02;;;3.80;96.20;;;;;;2073819;28;20555;-87
2022/01/13 01:43:22;;;;;;;41.67;16.15;;;3.70;96.20;;;;;;2071996;28;20508;-86
2022/01/13 01:44:29;;;;;;;39.22;15.02;;;3.70;96.20;;;;;;2081675;28;20066;-86
2022/01/13 01:45:33;;;;;;;34.97;15.15;;;3.70;96.20;;;;;;2090823;28;20076;-86
2022/01/13 01:46:39;;;;;;;39.67;15.90;;;3.70;96.20;;;;;;2080658;28;20034;-86
2022/01/13 01:47:41;;;;;;;39.72;15.38;;;3.70;96.20;;;;;;2083411;28;20108;-86
2022/01/13 01:48:41;;;;;;;40.25;15.18;;;3.70;96.20;;;;;;2088002;28;20483;-86
2022/01/13 01:49:47;;;;;;;38.22;15.25;;;3.70;96.20;;;;;;2082663;28;20037;-86
2022/01/13 01:50:55;;;;;;;38.17;15.35;;;3.70;96.20;;;;;;2082229;28;20025;-86
2022/01/13 01:51:59;;;;;;;39.30;15.02;;;3.70;96.30;;;;;;2083248;28;20055;-87
2022/01/13 01:52:59;;;;;;;38.13;15.43;;;3.70;96.50;;;;;;2082507;28;20021;-86
2022/01/13 01:54:00;;;;;;;36.60;14.27;;;3.70;96.30;;;;;;2082295;28;20095;-86
2022/01/13 01:55:01;;;;;;;37.65;15.00;;;3.70;96.30;;;;;;2073555;28;20132;-86
2022/01/13 01:56:02;;;;;;;36.63;15.18;;;3.70;96.30;;;;;;2065411;28;20145;-86
2022/01/13 01:57:04;;;;;;;37.08;15.43;;;3.70;96.30;;;;;;2078456;28;20029;-86
2022/01/13 01:58:04;;;;;;;38.17;15.48;;;3.70;96.30;;;;;;2081214;28;20032;-86
2022/01/13 01:59:07;;;;;;;38.22;15.20;;;3.70;96.30;;;;;;2073645;28;20460;-86
2022/01/13 02:00:11;;;;;;;35.25;14.02;;;3.70;96.30;;;;;;2081280;28;20034;-87
2022/01/13 02:01:13;;;;;;;32.45;14.02;;;3.70;96.30;;;;;;2081779;28;20037;-86
2022/01/13 02:02:15;;;;;;;36.65;14.93;;;3.70;96.30;;;;;;2080767;28;20033;-86
2022/01/13 02:03:16;;;;;;;42.55;15.18;;;3.70;96.30;;;;;;2081185;28;20034;-86
2022/01/13 02:04:18;;;;;;;39.83;15.05;;;3.70;96.30;;;;;;2080038;28;20037;-86
2022/01/13 02:05:18;;;;;;;31.80;13.52;;;3.70;96.30;;;;;;2074532;28;20030;-87
2022/01/13 02:06:19;;;;;;;36.47;14.43;;;3.70;96.30;;;;;;2081793;28;20043;-87
2022/01/13 02:07:20;;;;;;;40.60;15.10;;;3.70;96.30;;;;;;2090221;28;20052;-86
2022/01/13 02:08:21;;;;;;;36.90;14.57;;;3.70;96.30;;;;;;2090690;28;22866;-86
2022/01/13 02:09:22;;;;;;;34.92;14.57;;;3.70;96.30;;;;;;2079672;28;20038;-86
2022/01/13 02:10:23;;;;;;;36.42;14.52;;;3.70;96.30;;;;;;2080318;28;20120;-86
2022/01/13 02:11:25;;;;;;;36.97;15.13;;;3.70;96.30;;;;;;2098141;28;20034;-86
2022/01/13 02:12:35;;;;;;;35.50;13.95;;;3.70;96.30;;;;;;2097911;28;20032;-87
2022/01/13 02:13:44;;;;;;;31.52;13.35;;;3.70;96.30;;;;;;2079262;28;20519;-86
2022/01/13 02:14:55;;;;;;;33.42;12.98;;;3.70;96.30;;;;;;2075929;28;20038;-86
2022/01/13 02:17:04;;;;;;;29.35;12.38;;;3.70;96.30;;;;;;2072580;28;20034;-86
2022/01/13 02:18:06;;;;;;;33.03;13.05;;;3.70;96.30;;;;;;2077215;28;20037;-86
2022/01/13 02:19:09;;;;;;;31.20;12.98;;;3.80;96.30;;;;;;2088922;28;20049;-86
2022/01/13 02:20:17;;;;;;;30.35;12.15;;;3.70;96.30;;;;;;2085803;28;20087;-86
2022/01/13 02:21:19;;;;;;;29.90;12.65;;;3.70;96.30;;;;;;2088523;28;20072;-86
2022/01/13 02:22:22;;;;;;;31.75;13.43;;;3.80;96.30;;;;;;2095606;28;20042;-86
2022/01/13 02:23:35;;;;;;;26.40;11.82;;;3.80;96.30;;;;;;2095465;28;20032;-86
2022/01/13 02:24:36;;;;;;;28.35;12.10;;;3.80;96.30;;;;;;2089848;28;20476;-86
2022/01/13 02:25:37;;;;;;;30.52;12.93;;;3.80;96.30;;;;;;2073450;28;20071;-86
2022/01/13 02:26:38;;;;;;;28.75;11.57;;;3.70;96.30;;;;;;2073139;28;20176;-86
2022/01/13 02:27:38;;;;;;;31.23;13.10;;;3.80;96.60;;;;;;2084720;28;20029;-86
2022/01/13 02:28:39;;;;;;;31.17;12.93;;;3.80;96.30;;;;;;2080049;28;20039;-86
2022/01/13 02:29:40;;;;;;;28.70;12.30;;;3.80;96.30;;;;;;2069477;28;20026;-87
2022/01/13 02:30:41;;;;;;;34.65;13.32;;;3.70;96.30;;;;;;2080918;28;20033;-87
2022/01/13 02:31:42;;;;;;;52.72;14.10;;;3.80;96.30;;;;;;2073103;28;20077;-86
2022/01/13 02:32:44;;;;;;;33.05;13.25;;;3.70;96.30;;;;;;2060679;28;20486;-86
2022/01/13 02:33:45;;;;;;;32.15;13.95;;;3.70;96.30;;;;;;2074589;28;20065;-86
2022/01/13 02:34:46;;;;;;;31.80;13.00;;;3.80;96.30;;;;;;2072467;28;20038;-86
2022/01/13 02:35:46;;;;;;;31.17;13.20;;;3.70;96.30;;;;;;2077419;28;20062;-86
2022/01/13 02:36:52;;;;;;;33.95;13.30;;;3.70;96.30;;;;;;2065298;28;20137;-86
2022/01/13 02:37:53;;;;;;;30.08;13.32;;;3.80;96.40;;;;;;2069141;28;20026;-87
2022/01/13 02:38:54;;;;;;;32.42;12.73;;;3.70;96.60;;;;;;2081969;28;20037;-86
2022/01/13 02:39:55;;;;;;;33.58;13.23;;;3.80;96.40;;;;;;2082401;28;20041;-86
2022/01/13 02:40:57;;;;;;;29.40;13.20;;;3.80;96.40;;;;;;2082606;28;20064;-86
2022/01/13 02:41:59;;;;;;;39.35;13.55;;;3.80;96.40;;;;;;2081895;28;20518;-86
2022/01/13 02:43:00;;;;;;;30.17;13.23;;;3.80;96.30;;;;;;2086425;28;20022;-86
2022/01/13 02:44:01;;;;;;;32.30;12.48;;;3.80;96.60;;;;;;2081962;28;20045;-86
2022/01/13 02:45:03;;;;;;;34.28;12.80;;;3.80;96.30;;;;;;2080129;28;20048;-86
2022/01/13 02:46:33;;;;;;;35.58;13.23;;;3.80;96.30;;;;;;2072706;28;20562;-86
2022/01/13 02:47:59;;;;;;;33.17;13.50;;;3.80;96.30;;;;;;2081167;28;20080;-86
2022/01/13 02:48:58;;;;;;;30.08;12.90;;;3.80;96.30;;;;;;2081907;28;20427;-87
2022/01/13 02:49:59;;;;;;;30.55;12.82;;;3.70;96.30;;;;;;2077017;28;20491;-87
2022/01/13 02:51:00;;;;;;;30.08;12.70;;;3.70;96.30;;;;;;2086336;28;20064;-87
2022/01/13 02:52:02;;;;;;;32.35;13.00;;;3.70;96.30;;;;;;2089314;28;20574;-86
2022/01/13 02:53:03;;;;;;;30.35;12.60;;;3.70;96.30;;;;;;2072990;28;20420;-86
2022/01/13 02:54:05;;;;;;;29.98;13.38;;;3.70;96.30;;;;;;2073443;28;20084;-87
2022/01/13 02:55:06;;;;;;;28.23;12.55;;;3.70;96.30;;;;;;2080569;28;20128;-86
2022/01/13 02:56:07;;;;;;;38.20;12.95;;;3.70;96.30;;;;;;2089158;28;20186;-86
2022/01/13 02:57:08;;;;;;;29.70;12.85;;;3.70;96.30;;;;;;2094638;28;20037;-86
2022/01/13 02:58:14;;;;;;;32.20;12.85;;;3.70;96.30;;;;;;2081055;28;20131;-87
2022/01/13 02:59:14;;;;;;;30.38;12.85;;;3.70;96.30;;;;;;2073023;28;20411;-86
2022/01/13 03:00:16;;;;;;;27.33;11.73;;;3.70;96.30;;;;;;2073225;28;20052;-86
2022/01/13 03:01:17;;;;;;;30.70;12.73;;;3.70;96.40;;;;;;2087893;28;20037;-86
2022/01/13 03:02:18;;;;;;;28.75;12.27;;;3.70;96.40;;;;;;2086668;28;20120;-86
2022/01/13 03:03:19;;;;;;;28.02;11.90;;;3.70;96.40;;;;;;2081221;28;20048;-86
2022/01/13 03:04:22;;;;;;;32.15;12.85;;;3.70;96.40;;;;;;2074914;28;20400;-87
2022/01/13 03:05:22;;;;;;;26.80;12.43;;;3.70;96.40;;;;;;2081959;28;20100;-86
2022/01/13 03:06:31;;;;;;;31.65;12.52;;;3.70;96.40;;;;;;2081736;28;20521;-86
2022/01/13 03:07:34;;;;;;;35.13;12.55;;;3.70;96.40;;;;;;2073652;28;20030;-86
2022/01/13 03:08:36;;;;;;;27.42;11.98;;;3.70;96.40;;;;;;2072142;28;20049;-86
2022/01/13 03:09:36;;;;;;;27.45;12.18;;;3.70;96.40;;;;;;2081523;28;20389;-86
2022/01/13 03:10:37;;;;;;;29.20;12.20;;;3.70;96.40;;;;;;2081275;28;20127;-86
2022/01/13 03:11:38;;;;;;;27.05;12.38;;;3.60;96.70;;;;;;2088583;28;20063;-87
2022/01/13 03:12:43;;;;;;;24.73;11.07;;;3.70;96.40;;;;;;2092494;28;20037;-86
2022/01/13 03:13:43;;;;;;;25.52;10.98;;;3.70;96.40;;;;;;2077992;28;20057;-87
2022/01/13 03:14:44;;;;;;;21.77;10.70;;;3.70;96.50;;;;;;2089357;28;20044;-86
2022/01/13 03:15:45;;;;;;;26.90;11.43;;;3.70;96.50;;;;;;2080936;28;20045;-86
2022/01/13 03:16:46;;;;;;;23.77;11.10;;;3.70;96.50;;;;;;2080518;28;20041;-86
2022/01/13 03:17:46;;;;;;;22.88;10.55;;;3.70;96.40;;;;;;2077628;28;20044;-86
2022/01/13 03:18:47;;;;;;;26.67;10.98;;;3.70;96.40;;;;;;2075264;28;20033;-86
2022/01/13 03:19:48;;;;;;;24.30;10.88;;;3.70;96.40;;;;;;2079412;28;20033;-85
2022/01/13 03:20:48;;;;;;;25.77;10.65;;;3.70;96.40;;;;;;2088342;28;21514;-86
2022/01/13 03:21:49;;;;;;;21.48;10.35;;;3.70;96.50;;;;;;2080754;28;20041;-87
2022/01/13 03:22:50;;;;;;;26.05;10.73;;;3.70;96.50;;;;;;2072563;28;20025;-86
2022/01/13 03:23:51;;;;;;;21.77;9.90;;;3.70;96.50;;;;;;2069255;28;20124;-86
2022/01/13 03:24:51;;;;;;;28.17;11.90;;;3.70;96.50;;;;;;2068065;28;20045;-87
2022/01/13 03:25:53;;;;;;;24.85;10.32;;;3.70;96.50;;;;;;2085389;28;20048;-86
2022/01/13 03:26:55;;;;;;;24.73;10.05;;;3.70;96.50;;;;;;2096667;28;20044;-86
2022/01/13 03:28:03;;;;;;;21.20;9.02;;;3.70;96.50;;;;;;2090452;28;20120;-86
2022/01/13 03:30:08;;;;;;;21.50;9.13;;;3.70;96.50;;;;;;2081149;28;20549;-86
2022/01/13 03:31:08;;;;;;;23.00;9.98;;;3.70;96.50;;;;;;2073358;28;20157;-86
2022/01/13 03:32:09;;;;;;;22.25;9.70;;;3.70;96.50;;;;;;2080795;28;20465;-87
2022/01/13 03:33:11;;;;;;;21.85;9.38;;;3.70;96.50;;;;;;2078073;28;20049;-86
2022/01/13 03:34:13;;;;;;;23.48;10.32;;;3.70;96.50;;;;;;2080036;28;20128;-86
2022/01/13 03:35:14;;;;;;;26.55;10.55;;;3.70;96.50;;;;;;2086218;28;20044;-86
2022/01/13 03:36:15;;;;;;;24.58;10.93;;;3.70;96.40;;;;;;2087553;28;20040;-86
2022/01/13 03:37:15;;;;;;;25.90;10.15;;;3.70;96.40;;;;;;2081106;28;20056;-87
2022/01/13 03:38:16;;;;;;;21.58;10.23;;;3.70;96.40;;;;;;2070120;28;20137;-87
2022/01/13 03:39:17;;;;;;;21.08;10.07;;;3.70;96.40;;;;;;2079041;28;20174;-86
2022/01/13 03:40:17;;;;;;;22.65;10.48;;;3.70;96.50;;;;;;2089506;28;20072;-87
2022/01/13 03:41:20;;;;;;;27.52;10.82;;;3.70;96.50;;;;;;2097621;28;20082;-86
2022/01/13 03:42:21;;;;;;;27.50;10.52;;;3.70;96.50;;;;;;2080941;28;20057;-87
2022/01/13 03:43:21;;;;;;;24.08;10.57;;;3.70;96.40;;;;;;2080436;28;20467;-86
2022/01/13 03:44:28;;;;;;;34.67;11.70;;;3.70;96.70;;;;;;2088801;28;20037;-86
2022/01/13 03:45:29;;;;;;;23.60;11.05;;;3.70;96.50;;;;;;2089160;28;20037;-86
2022/01/13 03:46:30;;;;;;;25.65;10.02;;;3.60;96.50;;;;;;2085405;28;20137;-86
2022/01/13 03:47:30;;;;;;;25.25;9.98;;;3.60;96.50;;;;;;2080875;28;20046;-86
2022/01/13 03:48:31;;;;;;;23.92;10.68;;;3.70;96.50;;;;;;2072599;28;20554;-86
2022/01/13 03:49:32;;;;;;;23.88;10.52;;;3.60;96.50;;;;;;2080285;28;20040;-87
2022/01/13 03:50:33;;;;;;;25.08;11.20;;;3.60;96.50;;;;;;2096106;28;20032;-86
2022/01/13 03:51:54;;;;;;;29.13;11.18;;;3.60;96.50;;;;;;2094346;28;20470;-86
2022/01/13 03:53:01;;;;;;;23.83;10.50;;;3.60;96.50;;;;;;2088809;28;20088;-86
2022/01/13 03:54:26;;;;;;;24.95;10.20;;;3.60;96.50;;;;;;2089831;28;20487;-87
2022/01/13 03:55:36;;;;;;;23.70;9.68;;;3.60;96.50;;;;;;2088712;28;20506;-86
2022/01/13 03:56:43;;;;;;;23.93;10.13;;;3.60;96.50;;;;;;2073021;28;20511;-86
2022/01/13 03:57:49;;;;;;;20.77;9.80;;;3.60;96.50;;;;;;2072782;28;20352;-86
2022/01/13 03:59:14;;;;;;;27.40;10.57;;;3.60;96.50;;;;;;2076809;28;20037;-86
2022/01/13 04:00:52;;;;;;;20.95;10.55;;;3.60;96.50;;;;;;2081625;28;20495;-86
2022/01/13 04:02:10;;;;;;;21.20;9.98;;;3.60;96.40;;;;;;2072834;28;20038;-87
2022/01/13 04:03:11;;;;;;;26.60;9.20;;;3.60;96.50;;;;;;2072254;28;20045;-87
2022/01/13 04:04:12;;;;;;;54.30;13.40;;;3.60;96.40;;;;;;2080468;28;20037;-87
2022/01/13 04:05:12;;;;;;;24.60;11.02;;;3.60;96.40;;;;;;2080948;28;20077;-87
2022/01/13 04:06:16;;;;;;;27.65;11.48;;;3.60;96.40;;;;;;2075494;28;20396;-86
2022/01/13 04:07:21;;;;;;;23.83;11.10;;;3.60;96.50;;;;;;2076025;28;20038;-86
2022/01/13 04:08:21;;;;;;;22.55;10.55;;;3.60;96.50;;;;;;2075900;28;20034;-86
2022/01/13 04:09:22;;;;;;;49.78;12.40;;;3.50;96.50;;;;;;2077617;28;20393;-85
2022/01/13 04:10:48;;;;;;;25.13;11.18;;;3.50;96.50;;;;;;2086267;28;20120;-86
2022/01/13 04:11:51;;;;;;;23.00;10.80;;;3.50;96.50;;;;;;2085815;28;20037;-87
2022/01/13 04:12:52;;;;;;;24.48;10.80;;;3.50;96.50;;;;;;2081922;28;20553;-87
2022/01/13 04:14:00;;;;;;;20.50;10.10;;;3.50;96.50;;;;;;2082554;28;20057;-86
2022/01/13 04:15:02;;;;;;;28.05;10.68;;;3.50;96.50;;;;;;2073150;28;20471;-87
2022/01/13 04:16:04;;;;;;;24.13;10.60;;;3.60;96.60;;;;;;2073791;28;20050;-86
2022/01/13 04:17:05;;;;;;;28.00;11.38;;;3.50;96.50;;;;;;2089212;28;20029;-87
2022/01/13 04:18:05;;;;;;;26.50;11.68;;;3.50;96.50;;;;;;2087252;28;20534;-86
2022/01/13 04:19:07;;;;;;;29.67;11.55;;;3.60;96.50;;;;;;2080934;28;20250;-86
2022/01/13 04:20:09;;;;;;;26.25;11.18;;;3.50;96.50;;;;;;2085512;28;20037;-86
2022/01/13 04:21:09;;;;;;;24.67;11.25;;;3.60;96.50;;;;;;2080874;28;20088;-86
2022/01/13 04:22:11;;;;;;;23.63;10.50;;;3.60;96.50;;;;;;2080665;28;20511;-86
2022/01/13 04:23:12;;;;;;;25.67;11.10;;;3.60;96.60;;;;;;2093798;28;20041;-86
2022/01/13 04:24:13;;;;;;;25.92;11.00;;;3.60;96.60;;;;;;2095649;28;20051;-86
2022/01/13 04:25:15;;;;;;;22.73;11.32;;;3.60;96.60;;;;;;2068481;28;20035;-87
2022/01/13 04:26:19;;;;;;;27.02;10.32;;;3.60;96.60;;;;;;2079590;28;20045;-86
2022/01/13 04:27:26;;;;;;;22.70;11.43;;;3.60;96.60;;;;;;2080233;28;20030;-87
2022/01/13 04:28:28;;;;;;;27.98;11.43;;;3.60;96.60;;;;;;2087288;28;20477;-86
2022/01/13 04:29:37;;;;;;;23.27;9.88;;;3.60;96.60;;;;;;2090741;28;20040;-87
2022/01/13 04:31:45;;;;;;;30.63;11.38;;;3.60;96.60;;;;;;2079353;28;20026;-86
2022/01/13 04:32:45;;;;;;;24.15;11.05;;;3.60;96.60;;;;;;2073435;28;20062;-86
2022/01/13 04:33:46;;;;;;;21.90;10.25;;;3.60;96.60;;;;;;2076000;28;20613;-86
2022/01/13 04:34:47;;;;;;;21.80;10.90;;;3.60;96.60;;;;;;2076856;28;20038;-86
2022/01/13 04:35:47;;;;;;;22.02;10.15;;;3.60;96.50;;;;;;2066526;28;20237;-86
2022/01/13 04:36:49;;;;;;;28.40;10.73;;;3.60;96.60;;;;;;2076832;28;20049;-87
2022/01/13 04:37:49;;;;;;;22.00;10.32;;;3.60;96.60;;;;;;2089191;28;20045;-86
2022/01/13 04:38:50;;;;;;;24.95;10.82;;;3.60;96.60;;;;;;2072852;28;20041;-86
2022/01/13 04:39:50;;;;;;;22.17;10.65;;;3.60;96.60;;;;;;2075613;28;20030;-86
2022/01/13 04:40:56;;;;;;;24.27;10.38;;;3.60;96.60;;;;;;2086581;28;20043;-86
2022/01/13 04:41:57;;;;;;;21.73;10.48;;;3.60;96.60;;;;;;2084560;28;20037;-87
2022/01/13 04:42:57;;;;;;;24.52;10.27;;;3.60;96.60;;;;;;2076715;28;20488;-86
2022/01/13 04:43:58;;;;;;;28.02;11.68;;;3.60;96.60;;;;;;2071981;28;20085;-86
2022/01/13 04:44:58;;;;;;;23.48;10.85;;;3.60;96.60;;;;;;2083908;28;20403;-86
2022/01/13 04:46:00;;;;;;;22.88;10.43;;;3.60;96.60;;;;;;2074267;28;20038;-86
2022/01/13 04:47:00;;;;;;;27.85;10.95;;;3.60;96.60;;;;;;2064636;28;20034;-86
2022/01/13 04:48:01;;;;;;;25.63;11.32;;;3.60;96.90;;;;;;2078552;28;20467;-87
2022/01/13 04:49:02;;;;;;;20.33;10.32;;;3.60;96.60;;;;;;2080867;28;20041;-86
2022/01/13 04:50:03;;;;;;;21.90;10.55;;;3.60;96.60;;;;;;2078675;28;20057;-87
2022/01/13 04:51:04;;;;;;;23.63;10.68;;;3.60;96.60;;;;;;2064555;28;20038;-86
2022/01/13 04:52:05;;;;;;;27.42;11.00;;;3.60;96.60;;;;;;2078965;28;20037;-86
2022/01/13 04:53:06;;;;;;;23.98;10.93;;;3.60;96.60;;;;;;2080912;28;20132;-86
2022/01/13 04:54:07;;;;;;;23.05;10.45;;;3.60;96.60;;;;;;2085932;28;20045;-86
2022/01/13 04:55:11;;;;;;;21.98;10.80;;;3.60;96.60;;;;;;2080877;28;20075;-86
2022/01/13 04:56:15;;;;;;;21.67;10.38;;;3.60;96.60;;;;;;2080506;28;20195;-87
2022/01/13 04:57:17;;;;;;;25.98;10.48;;;3.60;96.60;;;;;;2080546;28;20034;-86
2022/01/13 04:58:19;;;;;;;36.60;11.15;;;3.60;96.60;;;;;;2081417;28;20033;-86
2022/01/13 04:59:19;;;;;;;22.23;11.15;;;3.60;96.60;;;;;;2082209;28;20053;-86
2022/01/13 05:00:22;;;;;;;26.98;11.15;;;3.60;96.60;;;;;;2081141;28;20491;-86
2022/01/13 05:01:23;;;;;;;22.63;11.25;;;3.60;96.60;;;;;;2068361;28;20046;-87
2022/01/13 05:02:24;;;;;;;21.08;10.02;;;3.60;96.60;;;;;;2069833;28;20068;-87
2022/01/13 05:03:24;;;;;;;28.38;10.75;;;3.60;96.60;;;;;;2080711;28;20500;-86
2022/01/13 05:04:25;;;;;;;24.67;10.98;;;3.60;96.60;;;;;;2097330;28;20037;-86
2022/01/13 05:05:26;;;;;;;24.48;10.68;;;3.60;96.60;;;;;;2089655;28;20040;-87
2022/01/13 05:06:27;;;;;;;23.00;11.10;;;3.60;96.60;;;;;;2088831;28;20086;-87
2022/01/13 05:07:27;;;;;;;23.92;10.88;;;3.60;96.60;;;;;;2089600;28;20107;-86
2022/01/13 05:08:28;;;;;;;23.42;10.63;;;3.50;96.50;;;;;;2094215;28;20037;-86
2022/01/13 05:09:29;;;;;;;24.92;11.20;;;3.50;96.60;;;;;;2089417;28;20041;-86
2022/01/13 05:10:29;;;;;;;24.40;10.90;;;3.50;96.60;;;;;;2081324;28;20135;-86
2022/01/13 05:11:30;;;;;;;23.48;10.30;;;3.50;96.60;;;;;;2088373;28;20450;-86
2022/01/13 05:12:37;;;;;;;25.60;10.80;;;3.50;96.60;;;;;;2088237;28;20035;-86
2022/01/13 05:13:37;;;;;;;24.95;11.00;;;3.50;96.60;;;;;;2088833;28;20048;-87
2022/01/13 05:14:38;;;;;;;19.02;9.60;;;3.50;96.60;;;;;;2078323;28;20044;-86
2022/01/13 05:15:41;;;;;;;19.75;10.60;;;3.50;96.60;;;;;;2065320;28;20042;-86
2022/01/13 05:18:10;;;;;;;22.17;10.38;;;3.50;96.60;;;;;;2072171;28;20061;-86
2022/01/13 05:19:15;;;;;;;22.17;10.43;;;3.50;96.60;;;;;;2078626;28;20076;-86
2022/01/13 05:20:20;;;;;;;23.50;10.25;;;3.50;96.60;;;;;;2073073;28;20038;-86
2022/01/13 05:21:44;;;;;;;27.80;11.10;;;3.50;96.60;;;;;;2075367;28;20108;-87
2022/01/13 05:22:45;;;;;;;29.15;10.85;;;3.40;96.60;;;;;;2090327;28;20137;-87
2022/01/13 05:23:46;;;;;;;31.02;11.38;;;3.40;96.50;;;;;;2081974;28;20400;-87
2022/01/13 05:24:48;;;;;;;32.33;12.20;;;3.40;96.50;;;;;;2073510;28;20512;-86
2022/01/13 05:25:49;;;;;;;37.88;12.05;;;3.40;96.50;;;;;;2073813;28;20084;-86
2022/01/13 05:26:50;;;;;;;29.90;11.82;;;3.40;96.50;;;;;;2074304;28;20096;-86
2022/01/13 05:27:51;;;;;;;24.35;12.00;;;3.40;96.50;;;;;;2077635;28;20050;-87
2022/01/13 05:28:51;;;;;;;26.70;12.00;;;3.40;96.50;;;;;;2090104;28;20040;-86
2022/01/13 05:29:52;;;;;;;25.55;11.57;;;3.40;96.60;;;;;;2089724;28;20029;-86
2022/01/13 05:30:52;;;;;;;22.08;11.43;;;3.30;96.60;;;;;;2073698;28;20048;-86
2022/01/13 05:31:53;;;;;;;31.88;12.20;;;3.30;96.60;;;;;;2085517;28;20503;-86
2022/01/13 05:32:56;;;;;;;27.25;11.57;;;3.30;96.90;;;;;;2083889;28;20075;-86
2022/01/13 05:33:57;;;;;;;28.40;11.40;;;3.30;96.60;;;;;;2064083;28;20404;-86
2022/01/13 05:34:58;;;;;;;33.97;12.27;;;3.30;96.60;;;;;;2074285;28;20073;-86
2022/01/13 05:36:00;;;;;;;32.25;12.23;;;3.30;96.60;;;;;;2083176;28;20050;-86
2022/01/13 05:37:01;;;;;;;41.53;13.27;;;3.30;96.60;;;;;;2077170;28;20034;-86